Time;durP1;ratioP1;P1;durP2;ratioP2;P2;SDS_P1;SDS_P2;PMS_P1;PMS_P2;Temp;Humidity;BMP_temperature;BMP_pressure;BME280_temperature;BME280_humidity;BME280_pressure;Samples;Min_cycle;Max_cycle;Signal;HPM_P1;HPM_P2
2021/11/12 00:13:19;;;;;;;0.57;0.30;;;;;;;;;;5037743;28;20035;-54
2021/11/12 00:15:51;;;;;;;3.80;0.52;;;;;;;;;;5038776;28;20014;-54
2021/11/12 00:18:16;;;;;;;1.75;0.35;;;;;;;;;;5036002;28;20032;-54
2021/11/12 00:20:42;;;;;;;3.95;0.25;;;;;;;;;;5034182;28;20041;-54
2021/11/12 00:23:08;;;;;;;1.90;0.82;;;;;;;;;;5038231;28;20025;-54
2021/11/12 00:25:33;;;;;;;2.42;0.77;;;;;;;;;;5035170;28;20108;-50
2021/11/12 00:27:59;;;;;;;1.40;0.52;;;;;;;;;;5038263;28;20072;-54
2021/11/12 00:36:22;;;;;;;3.17;0.75;;;;;;;;;;5035743;28;20056;-51
2021/11/12 00:38:24;;;;;;;0.77;0.35;;;;;;;;;;5036654;28;20029;-53
2021/11/12 00:41:17;;;;;;;0.93;0.32;;;;;;;;;;5037208;28;20013;-53
2021/11/12 00:43:44;;;;;;;1.08;0.50;;;;;;;;;;5037952;28;20028;-53
2021/11/12 00:46:15;;;;;;;1.92;0.77;;;;;;;;;;5037807;28;20100;-53
2021/11/12 00:48:46;;;;;;;0.00;0.00;;;;;;;;;;5037766;28;20067;-53
2021/11/12 00:51:15;;;;;;;;;;;;;;;;;;5038325;28;20013;-52
2021/11/12 00:53:49;;;;;;;2.08;0.30;;;;;;;;;;5040721;28;19911;-52
2021/11/12 00:56:14;;;;;;;0.73;0.22;;;;;;;;;;5036360;28;20083;-48
2021/11/12 00:58:39;;;;;;;1.95;0.40;;;;;;;;;;5035023;28;20127;-50
2021/11/12 01:01:05;;;;;;;4.10;1.02;;;;;;;;;;5037468;28;20090;-52
2021/11/12 01:03:30;;;;;;;0.82;0.52;;;;;;;;;;5035145;28;20374;-51
2021/11/12 01:05:56;;;;;;;0.82;0.52;;;;;;;;;;5037775;28;20044;-53
2021/11/12 01:08:21;;;;;;;1.00;0.63;;;;;;;;;;5035948;28;20029;-52
2021/11/12 01:10:47;;;;;;;2.00;0.70;;;;;;;;;;5039513;28;20564;-50
2021/11/12 01:13:12;;;;;;;0.65;0.17;;;;;;;;;;5036501;28;20090;-54
2021/11/12 01:15:37;;;;;;;0.30;0.20;;;;;;;;;;5033946;28;20032;-51
2021/11/12 01:18:03;;;;;;;2.20;0.55;;;;;;;;;;5036291;28;20048;-53
2021/11/12 01:20:28;;;;;;;1.88;0.20;;;;;;;;;;5032916;28;20028;-53
2021/11/12 01:22:53;;;;;;;2.47;0.70;;;;;;;;;;5036856;28;20021;-53
2021/11/12 01:25:20;;;;;;;2.95;0.55;;;;;;;;;;5035250;28;20385;-55
2021/11/12 01:27:45;;;;;;;5.78;0.40;;;;;;;;;;5040884;28;20094;-50
2021/11/12 01:30:12;;;;;;;0.93;0.22;;;;;;;;;;5037072;28;20484;-57
2021/11/12 01:32:38;;;;;;;1.55;0.68;;;;;;;;;;5036718;28;20115;-52
2021/11/12 01:35:04;;;;;;;3.10;0.75;;;;;;;;;;5033418;28;20161;-54
2021/11/12 01:37:31;;;;;;;1.40;0.40;;;;;;;;;;5033554;28;20021;-54
2021/11/12 01:40:00;;;;;;;3.35;0.85;;;;;;;;;;5035687;28;20563;-54
2021/11/12 01:42:45;;;;;;;1.13;0.52;;;;;;;;;;5033071;28;20075;-55
2021/11/12 01:45:11;;;;;;;1.45;0.43;;;;;;;;;;5035602;28;20021;-54
2021/11/12 01:47:44;;;;;;;5.07;1.05;;;;;;;;;;5033918;28;20029;-55
2021/11/12 01:50:17;;;;;;;0.15;0.15;;;;;;;;;;5035434;28;20212;-54
2021/11/12 01:52:46;;;;;;;1.50;0.57;;;;;;;;;;5034874;28;20022;-55
2021/11/12 01:55:46;;;;;;;2.00;0.70;;;;;;;;;;5034205;28;20033;-50
2021/11/12 01:58:26;;;;;;;2.17;0.70;;;;;;;;;;5033859;28;20107;-52
2021/11/12 02:00:51;;;;;;;0.40;0.30;;;;;;;;;;5034811;28;20367;-45
2021/11/12 02:03:17;;;;;;;1.92;0.98;;;;;;;;;;5035893;28;20544;-49
2021/11/12 02:05:42;;;;;;;0.28;0.20;;;;;;;;;;5037512;28;20090;-45
2021/11/12 02:08:09;;;;;;;3.22;1.45;;;;;;;;;;5036134;28;20037;-49
2021/11/12 02:10:36;;;;;;;2.00;1.00;;;;;;;;;;5035148;28;20074;-46
2021/11/12 02:13:10;;;;;;;2.75;0.30;;;;;;;;;;5035364;28;20790;-46
2021/11/12 02:15:38;;;;;;;0.57;0.30;;;;;;;;;;5035346;28;20030;-47
2021/11/12 02:18:11;;;;;;;1.15;0.88;;;;;;;;;;5033466;28;20017;-50
2021/11/12 02:20:42;;;;;;;11.15;1.20;;;;;;;;;;5035263;28;20501;-46
2021/11/12 02:23:07;;;;;;;1.17;0.57;;;;;;;;;;5036907;28;20040;-49
2021/11/12 02:25:36;;;;;;;0.85;0.30;;;;;;;;;;5035890;28;20464;-51
2021/11/12 02:28:07;;;;;;;1.60;0.60;;;;;;;;;;5032809;28;20017;-50
2021/11/12 02:30:33;;;;;;;1.27;0.30;;;;;;;;;;5033683;28;20023;-47
2021/11/12 02:32:59;;;;;;;1.52;0.75;;;;;;;;;;5034528;28;20036;-45
2021/11/12 02:35:24;;;;;;;1.27;0.75;;;;;;;;;;5035508;28;20009;-50
2021/11/12 02:37:50;;;;;;;0.68;0.28;;;;;;;;;;5035453;28;20431;-52
2021/11/12 02:40:15;;;;;;;3.47;0.50;;;;;;;;;;5038116;28;20075;-49
2021/11/12 02:42:41;;;;;;;0.93;0.32;;;;;;;;;;5033991;28;20121;-47
2021/11/12 02:45:06;;;;;;;0.90;0.45;;;;;;;;;;5035446;28;20071;-50
2021/11/12 02:47:31;;;;;;;1.90;0.55;;;;;;;;;;5037867;28;20059;-50
2021/11/12 02:49:58;;;;;;;4.47;0.65;;;;;;;;;;5039200;28;20045;-49
2021/11/12 02:52:25;;;;;;;0.80;0.50;;;;;;;;;;5035816;28;20041;-47
2021/11/12 02:54:51;;;;;;;2.97;1.27;;;;;;;;;;5036600;28;20125;-50
2021/11/12 02:57:19;;;;;;;3.33;0.57;;;;;;;;;;5036695;28;20717;-50
2021/11/12 02:59:45;;;;;;;3.65;1.48;;;;;;;;;;5037397;28;20109;-47
2021/11/12 03:02:10;;;;;;;2.42;1.00;;;;;;;;;;5036986;28;20109;-50
2021/11/12 03:04:36;;;;;;;1.75;0.75;;;;;;;;;;5033304;28;20027;-50
2021/11/12 03:07:02;;;;;;;1.70;1.00;;;;;;;;;;5034538;28;20037;-50
2021/11/12 03:09:31;;;;;;;4.40;0.50;;;;;;;;;;5036373;28;20033;-54
2021/11/12 03:11:59;;;;;;;1.95;0.80;;;;;;;;;;5032382;28;20026;-53
2021/11/12 03:14:24;;;;;;;4.03;2.22;;;;;;;;;;5032514;28;20032;-48
2021/11/12 03:16:50;;;;;;;1.95;1.17;;;;;;;;;;5032769;28;20018;-50
2021/11/12 03:19:16;;;;;;;5.63;1.70;;;;;;;;;;5035639;28;20373;-49
2021/11/12 03:21:42;;;;;;;1.40;0.65;;;;;;;;;;5036103;28;20507;-52
2021/11/12 03:24:16;;;;;;;2.47;1.48;;;;;;;;;;5034307;28;20025;-49
2021/11/12 03:56:48;;;;;;;4.38;2.67;;;;;;;;;;5037675;28;20036;-51
2021/11/12 04:02:06;;;;;;;5.65;2.72;;;;;;;;;;5039252;28;20056;-50
2021/11/12 05:56:37;;;;;;;3.05;2.40;;;;;;;;;;5035367;28;20028;-50
2021/11/12 05:59:03;;;;;;;3.08;1.25;;;;;;;;;;5038546;28;20021;-51
2021/11/12 06:01:29;;;;;;;7.30;2.75;;;;;;;;;;5038455;28;20047;-51
2021/11/12 06:03:55;;;;;;;1.95;1.05;;;;;;;;;;5037715;28;20472;-53
2021/11/12 06:06:21;;;;;;;2.45;1.23;;;;;;;;;;5033229;28;20144;-53
2021/11/12 06:08:46;;;;;;;14.65;2.58;;;;;;;;;;5033726;28;20010;-50
2021/11/12 06:11:11;;;;;;;1.85;1.13;;;;;;;;;;5034410;28;20022;-53
2021/11/12 06:13:36;;;;;;;4.97;1.70;;;;;;;;;;5037949;28;20487;-51
2021/11/12 06:16:02;;;;;;;6.25;1.98;;;;;;;;;;5038359;28;20063;-53
2021/11/12 06:18:27;;;;;;;9.52;7.75;;;;;;;;;;5032936;28;20029;-55
2021/11/12 06:20:53;;;;;;;3.75;3.35;;;;;;;;;;5032423;28;20026;-54
2021/11/12 06:23:19;;;;;;;3.80;2.15;;;;;;;;;;5038494;28;20024;-51
2021/11/12 06:25:44;;;;;;;3.08;1.55;;;;;;;;;;5033206;28;20480;-48
2021/11/12 06:28:09;;;;;;;4.13;1.25;;;;;;;;;;5033723;28;20048;-53
2021/11/12 06:30:35;;;;;;;7.43;2.83;;;;;;;;;;5036922;28;20017;-52
2021/11/12 06:33:00;;;;;;;4.38;1.73;;;;;;;;;;5036582;28;20017;-50
2021/11/12 06:35:27;;;;;;;8.60;4.55;;;;;;;;;;5032174;28;20532;-52
2021/11/12 06:37:52;;;;;;;8.15;7.32;;;;;;;;;;5036100;28;20112;-52
2021/11/12 06:40:20;;;;;;;8.55;5.88;;;;;;;;;;5036816;28;20364;-52
2021/11/12 06:50:35;;;;;;;24.65;8.25;;;;;;;;;;5030712;28;20084;-52
2021/11/12 06:53:01;;;;;;;15.20;7.22;;;;;;;;;;5035567;28;20079;-51
2021/11/12 06:55:26;;;;;;;23.30;11.60;;;;;;;;;;5036835;28;20031;-51
2021/11/12 06:57:52;;;;;;;22.48;13.50;;;;;;;;;;5034648;28;20029;-51
2021/11/12 07:00:19;;;;;;;15.63;13.10;;;;;;;;;;5035345;28;20025;-49
2021/11/12 07:02:45;;;;;;;14.85;11.52;;;;;;;;;;5036868;28;20029;-51
2021/11/12 07:05:11;;;;;;;26.38;11.43;;;;;;;;;;5034096;28;20040;-52
2021/11/12 07:07:36;;;;;;;14.57;9.88;;;;;;;;;;5033292;28;20026;-53
2021/11/12 07:10:02;;;;;;;17.92;10.40;;;;;;;;;;5032974;28;20029;-52
2021/11/12 07:12:28;;;;;;;37.05;28.48;;;;;;;;;;5032491;28;20532;-46
2021/11/12 07:14:53;;;;;;;10.05;7.90;;;;;;;;;;5038035;28;20017;-51
2021/11/12 07:17:18;;;;;;;14.75;13.38;;;;;;;;;;5039613;28;20472;-46
2021/11/12 07:19:44;;;;;;;14.52;11.50;;;;;;;;;;5039230;28;20025;-50
2021/11/12 07:22:10;;;;;;;11.80;9.05;;;;;;;;;;5038924;28;20028;-51
2021/11/12 07:24:36;;;;;;;7.97;7.13;;;;;;;;;;5039752;28;20032;-54
2021/11/12 07:27:02;;;;;;;11.73;7.13;;;;;;;;;;5035889;28;20017;-52
2021/11/12 07:29:29;;;;;;;44.60;39.88;;;;;;;;;;5036415;28;20623;-49
2021/11/12 07:31:56;;;;;;;20.02;17.38;;;;;;;;;;5037972;28;20076;-48
2021/11/12 07:34:24;;;;;;;14.15;9.38;;;;;;;;;;5034572;28;20037;-49
2021/11/12 07:36:54;;;;;;;13.75;9.88;;;;;;;;;;5033639;28;20872;-47
2021/11/12 07:49:32;;;;;;;8.60;4.80;;;;;;;;;;5034549;28;20045;-46
2021/11/12 07:51:57;;;;;;;7.57;4.88;;;;;;;;;;5037151;28;20434;-52
2021/11/12 07:54:23;;;;;;;8.93;5.40;;;;;;;;;;5038169;28;20501;-48
2021/11/12 07:56:49;;;;;;;9.38;6.28;;;;;;;;;;5038534;28;20017;-48
2021/11/12 07:59:14;;;;;;;11.93;10.27;;;;;;;;;;5039642;28;20026;-46
2021/11/12 08:01:40;;;;;;;8.20;5.95;;;;;;;;;;5034174;28;20063;-46
2021/11/12 08:04:06;;;;;;;4.72;3.63;;;;;;;;;;5035345;28;20036;-47
2021/11/12 08:06:33;;;;;;;2.15;1.63;;;;;;;;;;5035767;28;20013;-49
2021/11/12 08:09:07;;;;;;;10.25;3.13;;;;;;;;;;5040612;28;20537;-45
2021/11/12 08:11:41;;;;;;;7.40;2.72;;;;;;;;;;5033817;28;20049;-45
2021/11/12 08:14:12;;;;;;;3.65;2.90;;;;;;;;;;5037206;28;20208;-46
2021/11/12 08:16:51;;;;;;;5.72;2.80;;;;;;;;;;5036307;28;20025;-49
2021/11/12 08:19:24;;;;;;;5.50;3.35;;;;;;;;;;5042203;28;20476;-47
2021/11/12 08:22:04;;;;;;;6.25;3.95;;;;;;;;;;5037266;28;20048;-48
2021/11/12 08:42:59;;;;;;;5.13;3.20;;;;;;;;;;5037094;28;20074;-51
2021/11/12 08:45:29;;;;;;;3.72;2.83;;;;;;;;;;5037025;28;20075;-52
2021/11/12 08:47:59;;;;;;;8.73;4.55;;;;;;;;;;5037591;28;20052;-48
2021/11/12 08:50:24;;;;;;;2.83;2.33;;;;;;;;;;5037389;28;20045;-49
2021/11/12 08:52:52;;;;;;;8.40;4.88;;;;;;;;;;5038191;28;20021;-46
2021/11/12 08:55:24;;;;;;;4.63;4.03;;;;;;;;;;5038622;28;20104;-49
2021/11/12 08:57:50;;;;;;;9.80;5.03;;;;;;;;;;5037438;28;20427;-49
2021/11/12 09:00:15;;;;;;;10.90;5.93;;;;;;;;;;5038060;28;20520;-53
2021/11/12 09:02:40;;;;;;;6.15;3.55;;;;;;;;;;5037836;28;20036;-52
2021/11/12 09:05:06;;;;;;;3.63;1.95;;;;;;;;;;5040244;28;20032;-51
2021/11/12 09:07:32;;;;;;;11.32;5.53;;;;;;;;;;5041110;28;20064;-50
2021/11/12 09:09:58;;;;;;;11.60;3.85;;;;;;;;;;5038629;28;20029;-50
2021/11/12 09:12:25;;;;;;;4.40;1.90;;;;;;;;;;5037473;28;20513;-49
2021/11/12 09:14:51;;;;;;;8.77;3.60;;;;;;;;;;5040548;28;20276;-50
2021/11/12 09:17:17;;;;;;;4.40;2.63;;;;;;;;;;5037093;28;20108;-48
2021/11/12 09:19:48;;;;;;;3.95;3.38;;;;;;;;;;5043190;28;20075;-49
2021/11/12 09:22:14;;;;;;;8.18;5.05;;;;;;;;;;5040334;28;20025;-48
2021/11/12 09:24:40;;;;;;;11.48;3.20;;;;;;;;;;5037935;28;20036;-48
2021/11/12 09:27:05;;;;;;;11.38;2.75;;;;;;;;;;5036543;28;20055;-50
2021/11/12 09:29:31;;;;;;;16.33;4.45;;;;;;;;;;5036140;28;20521;-48
2021/11/12 09:31:58;;;;;;;9.48;3.88;;;;;;;;;;5037814;28;20186;-51
2021/11/12 09:34:23;;;;;;;2.75;1.63;;;;;;;;;;5037520;28;20021;-47
2021/11/12 09:36:48;;;;;;;5.57;3.40;;;;;;;;;;5034576;28;20496;-46
2021/11/12 09:39:14;;;;;;;4.68;2.20;;;;;;;;;;5037418;28;20018;-48
2021/11/12 09:41:39;;;;;;;6.05;3.65;;;;;;;;;;5033921;28;20489;-50
2021/11/12 09:44:06;;;;;;;2.72;1.38;;;;;;;;;;5037580;28;20040;-48
2021/11/12 09:46:32;;;;;;;4.43;1.98;;;;;;;;;;5034476;28;20602;-49
2021/11/12 09:49:02;;;;;;;3.25;2.65;;;;;;;;;;5036370;28;20029;-54
2021/11/12 09:51:28;;;;;;;4.65;2.70;;;;;;;;;;5036022;28;20028;-53
2021/11/12 09:53:54;;;;;;;8.25;4.32;;;;;;;;;;5037636;28;20555;-49
2021/11/12 09:56:19;;;;;;;4.88;1.60;;;;;;;;;;5036910;28;20028;-49
2021/11/12 09:58:48;;;;;;;5.60;3.15;;;;;;;;;;5034536;28;20017;-48
2021/11/12 10:01:13;;;;;;;3.55;2.28;;;;;;;;;;5034997;28;20048;-54
2021/11/12 10:03:45;;;;;;;2.65;1.90;;;;;;;;;;5032676;28;20052;-52
2021/11/12 10:06:21;;;;;;;4.43;2.28;;;;;;;;;;5035025;28;20025;-51
2021/11/12 10:08:49;;;;;;;5.90;2.75;;;;;;;;;;5034029;28;20035;-51
2021/11/12 10:11:20;;;;;;;3.75;2.42;;;;;;;;;;5036026;28;20495;-49
2021/11/12 10:13:46;;;;;;;4.82;2.17;;;;;;;;;;5035650;28;20099;-51
2021/11/12 10:18:57;;;;;;;6.57;3.85;;;;;;;;;;5034561;28;20040;-49
2021/11/12 10:21:26;;;;;;;3.63;2.00;;;;;;;;;;5037923;28;20017;-49
2021/11/12 10:23:57;;;;;;;4.95;3.28;;;;;;;;;;5034212;28;20017;-47
2021/11/12 10:26:26;;;;;;;9.98;3.10;;;;;;;;;;5037782;28;20052;-47
2021/11/12 10:28:52;;;;;;;7.90;3.08;;;;;;;;;;5034812;28;20492;-52
2021/11/12 10:31:18;;;;;;;6.25;3.10;;;;;;;;;;5034116;28;20043;-52
2021/11/12 10:33:48;;;;;;;7.45;3.83;;;;;;;;;;5035966;28;20013;-61
2021/11/12 10:36:13;;;;;;;5.45;4.20;;;;;;;;;;5034369;28;20045;-62
2021/11/12 10:38:42;;;;;;;8.35;4.25;;;;;;;;;;5036737;28;20063;-61
2021/11/12 10:41:24;;;;;;;5.93;3.63;;;;;;;;;;5036025;28;20025;-62
2021/11/12 10:43:51;;;;;;;9.32;5.50;;;;;;;;;;5035736;28;20029;-62
2021/11/12 10:46:36;;;;;;;6.47;3.35;;;;;;;;;;5033523;28;20047;-61
2021/11/12 10:49:21;;;;;;;7.40;4.00;;;;;;;;;;5032675;28;20067;-61
2021/11/12 10:51:58;;;;;;;12.88;4.22;;;;;;;;;;5033548;28;20025;-62
2021/11/12 10:54:37;;;;;;;8.98;4.97;;;;;;;;;;5035311;28;20017;-61
2021/11/12 10:57:04;;;;;;;5.78;4.55;;;;;;;;;;5036876;28;20049;-60
2021/11/12 10:59:30;;;;;;;8.25;5.25;;;;;;;;;;5035574;28;20029;-61
2021/11/12 11:01:55;;;;;;;4.78;3.60;;;;;;;;;;5034145;28;20026;-61
2021/11/12 11:04:22;;;;;;;10.02;7.10;;;;;;;;;;5037068;28;20060;-61
2021/11/12 11:06:49;;;;;;;13.10;7.90;;;;;;;;;;5036599;28;20024;-61
2021/11/12 11:09:14;;;;;;;8.88;4.00;;;;;;;;;;5034741;28;20032;-61
2021/11/12 11:11:44;;;;;;;3.78;2.65;;;;;;;;;;5032859;28;20104;-61
2021/11/12 11:14:26;;;;;;;14.23;4.25;;;;;;;;;;5033678;28;20025;-67
2021/11/12 11:16:51;;;;;;;6.28;3.55;;;;;;;;;;5035000;28;20033;-67
2021/11/12 11:19:31;;;;;;;5.03;3.95;;;;;;;;;;5034848;28;20064;-67
2021/11/12 11:22:04;;;;;;;8.27;3.67;;;;;;;;;;5034989;28;20508;-67
2021/11/12 11:24:33;;;;;;;4.90;2.92;;;;;;;;;;5032843;28;20029;-66
2021/11/12 11:27:00;;;;;;;6.82;3.92;;;;;;;;;;5033321;28;20026;-67
2021/11/12 11:29:26;;;;;;;9.98;2.80;;;;;;;;;;5034854;28;20025;-67
2021/11/12 11:31:54;;;;;;;11.38;5.32;;;;;;;;;;5032170;28;20028;-67
2021/11/12 11:34:20;;;;;;;5.88;3.63;;;;;;;;;;5033614;28;20195;-62
2021/11/12 11:36:46;;;;;;;19.50;5.32;;;;;;;;;;5035910;28;20049;-62
2021/11/12 11:39:16;;;;;;;7.85;6.07;;;;;;;;;;5035661;28;20538;-62
2021/11/12 11:41:45;;;;;;;7.43;3.92;;;;;;;;;;5035861;28;20047;-62
2021/11/12 11:44:10;;;;;;;6.18;3.80;;;;;;;;;;5037603;28;20112;-62
2021/11/12 11:46:41;;;;;;;12.45;4.93;;;;;;;;;;5034681;28;20111;-62
2021/11/12 11:49:11;;;;;;;8.88;3.75;;;;;;;;;;5036606;28;20045;-62
2021/11/12 11:51:56;;;;;;;9.93;3.58;;;;;;;;;;5037207;28;20029;-62
2021/11/12 11:54:22;;;;;;;13.95;9.32;;;;;;;;;;5035128;28;20096;-62
2021/11/12 11:56:49;;;;;;;12.27;5.30;;;;;;;;;;5032055;28;20052;-62
2021/11/12 11:59:25;;;;;;;14.32;4.63;;;;;;;;;;5037194;28;20042;-62
2021/11/12 12:02:01;;;;;;;5.82;4.10;;;;;;;;;;5037583;28;20036;-62
2021/11/12 12:04:28;;;;;;;10.10;3.92;;;;;;;;;;5037632;28;20032;-62
2021/11/12 12:07:02;;;;;;;4.45;2.90;;;;;;;;;;5037565;28;20034;-62
2021/11/12 12:09:47;;;;;;;17.70;5.85;;;;;;;;;;5038362;28;20029;-62
2021/11/12 12:12:33;;;;;;;18.40;4.68;;;;;;;;;;5036286;28;20168;-62
2021/11/12 12:15:05;;;;;;;8.00;5.47;;;;;;;;;;5031520;28;20030;-62
2021/11/12 12:17:38;;;;;;;6.68;5.13;;;;;;;;;;5040325;28;20032;-62
2021/11/12 13:21:30;;;;;;;19.23;7.72;;;;;;;;;;5038539;28;20763;-59
2021/11/12 13:24:15;;;;;;;14.52;3.78;;;;;;;;;;5035576;28;20024;-61
2021/11/12 13:26:39;;;;;;;4.93;2.78;;;;;;;;;;5038099;28;20092;-59
2021/11/12 13:29:05;;;;;;;9.32;2.78;;;;;;;;;;5035831;28;20120;-59
2021/11/12 13:31:30;;;;;;;7.63;4.18;;;;;;;;;;5035610;28;20476;-59
2021/11/12 13:33:58;;;;;;;6.22;4.40;;;;;;;;;;5036712;28;20021;-59
2021/11/12 13:36:24;;;;;;;15.80;7.55;;;;;;;;;;5037052;28;20013;-60
2021/11/12 13:38:51;;;;;;;9.75;1.92;;;;;;;;;;5038688;28;20830;-59
2021/11/12 13:41:17;;;;;;;12.25;7.68;;;;;;;;;;5035143;28;20472;-59
2021/11/12 13:43:44;;;;;;;10.35;3.20;;;;;;;;;;5035771;28;20071;-59
2021/11/12 13:46:10;;;;;;;5.28;4.57;;;;;;;;;;5034267;28;20057;-60
2021/11/12 13:48:49;;;;;;;21.00;7.63;;;;;;;;;;5036222;28;20080;-60
2021/11/12 13:51:17;;;;;;;20.67;6.70;;;;;;;;;;5034058;28;20116;-60
2021/11/12 13:53:45;;;;;;;7.97;5.05;;;;;;;;;;5035223;28;20107;-59
2021/11/12 13:56:11;;;;;;;17.92;11.50;;;;;;;;;;5036002;28;20436;-59
2021/11/12 13:58:37;;;;;;;16.50;8.63;;;;;;;;;;5036756;28;20480;-59
2021/11/12 14:01:13;;;;;;;11.75;6.60;;;;;;;;;;5036959;28;20040;-60
2021/11/12 14:03:39;;;;;;;19.35;14.48;;;;;;;;;;5034275;28;20036;-60
2021/11/12 14:06:12;;;;;;;14.05;5.13;;;;;;;;;;5036930;28;20028;-59
2021/11/12 14:08:40;;;;;;;12.57;8.05;;;;;;;;;;5037249;28;20546;-60
2021/11/12 14:11:26;;;;;;;11.70;5.85;;;;;;;;;;5033362;28;20029;-60
2021/11/12 14:13:59;;;;;;;13.68;5.53;;;;;;;;;;5033325;28;20465;-59
2021/11/12 14:16:29;;;;;;;6.18;2.65;;;;;;;;;;5033873;28;20037;-60
2021/11/12 14:21:37;;;;;;;13.13;4.97;;;;;;;;;;5032904;28;20513;-59
2021/11/12 14:29:32;;;;;;;13.35;5.25;;;;;;;;;;5035628;28;20170;-63
2021/11/12 14:32:14;;;;;;;6.78;2.33;;;;;;;;;;5033358;28;20104;-63
2021/11/12 14:43:02;;;;;;;16.33;7.72;;;;;;;;;;5037849;28;20029;-65
2021/11/12 14:45:30;;;;;;;11.32;4.05;;;;;;;;;;5034734;28;20230;-65
2021/11/12 14:58:41;;;;;;;18.98;5.43;;;;;;;;;;5036525;28;20037;-63
2021/11/12 15:01:09;;;;;;;19.75;6.75;;;;;;;;;;5035607;28;20506;-63
2021/11/12 15:03:35;;;;;;;15.73;5.85;;;;;;;;;;5036478;28;20052;-63
2021/11/12 15:06:01;;;;;;;9.02;5.70;;;;;;;;;;5035011;28;20094;-63
2021/11/12 15:08:27;;;;;;;8.93;3.47;;;;;;;;;;5033121;28;20190;-63
2021/11/12 15:10:54;;;;;;;11.63;6.05;;;;;;;;;;5036598;28;20021;-63
2021/11/12 15:13:19;;;;;;;14.50;7.03;;;;;;;;;;5033570;28;20093;-63
2021/11/12 15:15:47;;;;;;;9.35;5.07;;;;;;;;;;5036781;28;20441;-63
2021/11/12 15:18:12;;;;;;;12.10;7.85;;;;;;;;;;5037897;28;20052;-62
2021/11/12 15:20:39;;;;;;;8.93;5.05;;;;;;;;;;5036598;28;20622;-62
2021/11/12 15:29:21;;;;;;;6.93;3.75;;;;;;;;;;5036197;28;20108;-63
2021/11/12 15:33:36;;;;;;;7.43;4.03;;;;;;;;;;5039218;28;20022;-63
2021/11/12 15:36:05;;;;;;;6.07;3.88;;;;;;;;;;5038405;28;20047;-63
2021/11/12 15:38:36;;;;;;;23.08;9.55;;;;;;;;;;5036725;28;20032;-63
2021/11/12 15:41:09;;;;;;;11.70;5.78;;;;;;;;;;5039944;28;20033;-63
2021/11/12 15:46:20;;;;;;;22.48;4.07;;;;;;;;;;5040882;28;20028;-63
2021/11/12 15:48:46;;;;;;;13.70;10.13;;;;;;;;;;5037161;28;20051;-63
2021/11/12 15:53:57;;;;;;;16.77;10.88;;;;;;;;;;5036060;28;20119;-63
2021/11/12 16:17:21;;;;;;;16.80;5.85;;;;;;;;;;5007230;28;20396;-63
2021/11/12 16:27:23;;;;;;;8.07;2.65;;;;;;;;;;5037776;28;20507;-62
2021/11/12 16:29:51;;;;;;;8.75;4.75;;;;;;;;;;5036458;28;20025;-62
2021/11/12 16:32:36;;;;;;;12.75;5.57;;;;;;;;;;5040329;28;20024;-62
2021/11/12 16:35:02;;;;;;;16.80;6.57;;;;;;;;;;5038679;28;20139;-62
2021/11/12 16:37:28;;;;;;;6.72;2.92;;;;;;;;;;5039141;28;20033;-62
2021/11/12 16:40:01;;;;;;;11.48;5.97;;;;;;;;;;5037723;28;20075;-63
2021/11/12 16:48:30;;;;;;;20.25;16.30;;;;;;;;;;5035841;28;20143;-62
2021/11/12 16:58:38;;;;;;;7.07;3.38;;;;;;;;;;5032197;28;20032;-58
2021/11/12 17:09:44;;;;;;;2.67;0.98;;;;;;;;;;5038590;28;20079;-57
2021/11/12 17:12:49;;;;;;;3.22;1.63;;;;;;;;;;5034195;28;20421;-57
2021/11/12 17:18:00;;;;;;;3.72;1.65;;;;;;;;;;5036079;28;20730;-57
2021/11/12 17:45:25;;;;;;;4.03;1.70;;;;;;;;;;5034979;28;20036;-60
2021/11/12 17:47:51;;;;;;;2.72;1.83;;;;;;;;;;5034961;28;20051;-62
2021/11/12 18:03:50;;;;;;;8.68;2.58;;;;;;;;;;5033966;28;20079;-59
2021/11/12 21:48:25;;;;;;;11.70;8.60;;;;;;;;;;5034995;28;20032;-60
2021/11/12 21:50:54;;;;;;;9.38;4.80;;;;;;;;;;5036797;28;20049;-60
2021/11/12 21:53:22;;;;;;;14.73;8.38;;;;;;;;;;5034958;28;20009;-60
2021/11/12 21:55:48;;;;;;;11.18;7.13;;;;;;;;;;5035881;28;20021;-60
2021/11/12 21:58:14;;;;;;;6.05;4.68;;;;;;;;;;5035054;28;20044;-60
2021/11/12 22:00:40;;;;;;;10.45;6.78;;;;;;;;;;5036711;28;20026;-60
2021/11/12 22:03:05;;;;;;;12.18;6.32;;;;;;;;;;5039714;28;20025;-60
2021/11/12 22:05:30;;;;;;;10.30;6.28;;;;;;;;;;5035855;28;20032;-60
2021/11/12 22:07:56;;;;;;;17.50;10.43;;;;;;;;;;5035992;28;20025;-61
2021/11/12 22:10:21;;;;;;;15.70;9.68;;;;;;;;;;5037036;28;20623;-61
2021/11/12 22:12:47;;;;;;;7.53;5.85;;;;;;;;;;5033524;28;20029;-61
2021/11/12 22:15:12;;;;;;;15.82;9.50;;;;;;;;;;5036910;28;20112;-61
2021/11/12 22:17:37;;;;;;;12.93;5.93;;;;;;;;;;5036104;28;20126;-60
2021/11/12 22:20:04;;;;;;;9.05;3.83;;;;;;;;;;5035048;28;20084;-61
2021/11/12 22:22:30;;;;;;;3.80;2.58;;;;;;;;;;5036913;28;20025;-60
2021/11/12 22:24:55;;;;;;;8.30;4.63;;;;;;;;;;5038753;28;20499;-60
2021/11/12 22:27:20;;;;;;;8.70;6.82;;;;;;;;;;5035620;28;20476;-61
2021/11/12 22:29:46;;;;;;;15.43;9.60;;;;;;;;;;5037384;28;20460;-61
2021/11/12 22:32:11;;;;;;;22.35;14.13;;;;;;;;;;5034031;28;20021;-58
2021/11/12 22:34:36;;;;;;;32.42;18.75;;;;;;;;;;5040127;28;20024;-60
2021/11/12 22:37:02;;;;;;;16.63;7.97;;;;;;;;;;5035807;28;20013;-60
2021/11/12 22:39:27;;;;;;;13.90;5.32;;;;;;;;;;5036554;28;20017;-60
2021/11/12 22:41:53;;;;;;;16.13;9.55;;;;;;;;;;5035887;28;20041;-60
2021/11/12 22:44:18;;;;;;;8.90;4.32;;;;;;;;;;5034211;28;20024;-60
2021/11/12 22:46:44;;;;;;;12.75;3.30;;;;;;;;;;5034553;28;20381;-60
2021/11/12 22:49:10;;;;;;;4.90;2.63;;;;;;;;;;5035727;28;20068;-60
2021/11/12 22:51:35;;;;;;;5.97;3.42;;;;;;;;;;5037131;28;20022;-60
2021/11/12 22:54:01;;;;;;;10.57;3.10;;;;;;;;;;5034935;28;20017;-60
2021/11/12 22:56:27;;;;;;;11.32;3.35;;;;;;;;;;5034839;28;20464;-60
2021/11/12 22:58:53;;;;;;;5.68;4.03;;;;;;;;;;5035467;28;20039;-59
2021/11/12 23:01:21;;;;;;;5.03;2.60;;;;;;;;;;5038556;28;20021;-59
2021/11/12 23:03:46;;;;;;;8.15;4.53;;;;;;;;;;5035469;28;20747;-59
2021/11/12 23:06:12;;;;;;;8.18;2.97;;;;;;;;;;5033638;28;20205;-59
2021/11/12 23:08:38;;;;;;;5.43;2.92;;;;;;;;;;5035098;28;20033;-59
2021/11/12 23:11:04;;;;;;;9.40;3.15;;;;;;;;;;5033350;28;20013;-59
2021/11/12 23:13:30;;;;;;;7.20;4.03;;;;;;;;;;5033232;28;20207;-59
2021/11/12 23:15:56;;;;;;;4.43;2.65;;;;;;;;;;5032398;28;20271;-58
2021/11/12 23:18:25;;;;;;;15.57;4.72;;;;;;;;;;5036571;28;20029;-59
2021/11/12 23:20:51;;;;;;;14.18;3.80;;;;;;;;;;5033891;28;20704;-60
2021/11/12 23:23:16;;;;;;;4.15;2.72;;;;;;;;;;5033686;28;20105;-59
2021/11/12 23:25:41;;;;;;;10.65;4.47;;;;;;;;;;5033664;28;20020;-59
2021/11/12 23:28:06;;;;;;;7.43;4.82;;;;;;;;;;5033627;28;20017;-60
2021/11/12 23:30:32;;;;;;;13.07;3.63;;;;;;;;;;5035926;28;20017;-59
2021/11/12 23:32:57;;;;;;;7.30;3.85;;;;;;;;;;5030942;28;20468;-60
2021/11/12 23:35:23;;;;;;;6.90;4.32;;;;;;;;;;5036371;28;20480;-59
2021/11/12 23:37:48;;;;;;;5.68;2.67;;;;;;;;;;5035545;28;20037;-59
2021/11/12 23:40:14;;;;;;;15.18;2.50;;;;;;;;;;5035129;28;20055;-60
2021/11/12 23:42:39;;;;;;;2.47;1.63;;;;;;;;;;5034537;28;20044;-59
2021/11/12 23:45:05;;;;;;;6.50;2.72;;;;;;;;;;5033553;28;20026;-59
2021/11/12 23:47:31;;;;;;;9.20;2.10;;;;;;;;;;5037521;28;20060;-59
2021/11/12 23:49:56;;;;;;;8.63;3.40;;;;;;;;;;5034259;28;20586;-60
2021/11/12 23:52:21;;;;;;;6.57;2.92;;;;;;;;;;5033828;28;20373;-59
2021/11/12 23:54:47;;;;;;;5.70;2.55;;;;;;;;;;5039255;28;20043;-59
2021/11/12 23:57:12;;;;;;;14.88;3.60;;;;;;;;;;5038614;28;20020;-60
2021/11/12 23:59:37;;;;;;;3.60;1.70;;;;;;;;;;5036512;28;20056;-60
